Time;durP1;ratioP1;P1;durP2;ratioP2;P2;SDS_P1;SDS_P2;PMS_P1;PMS_P2;Temp;Humidity;BMP_temperature;BMP_pressure;BME280_temperature;BME280_humidity;BME280_pressure;Samples;Min_cycle;Max_cycle;Signal;HPM_P1;HPM_P2
2024/03/02 00:01:54;;;;;;;;;;;5.70;99.90;;;;;;5056167;28;20019;-64
2024/03/02 00:04:26;;;;;;;;;;;5.70;99.90;;;;;;5056150;28;19929;-64
2024/03/02 00:06:58;;;;;;;;;;;5.70;99.90;;;;;;5057852;28;19933;-65
2024/03/02 00:09:25;;;;;;;;;;;5.70;99.90;;;;;;5058160;28;19924;-63
2024/03/02 00:12:00;;;;;;;;;;;5.60;99.90;;;;;;5052769;28;20348;-64
2024/03/02 00:14:32;;;;;;;;;;;5.60;99.90;;;;;;5066812;28;19929;-63
2024/03/02 00:17:04;;;;;;;;;;;5.60;99.90;;;;;;5047034;28;19930;-63
2024/03/02 00:19:39;;;;;;;;;;;5.50;99.90;;;;;;5056815;28;19925;-64
2024/03/02 00:22:07;;;;;;;;;;;5.50;99.90;;;;;;5058137;28;20505;-64
2024/03/02 00:24:39;;;;;;;;;;;5.50;99.90;;;;;;5058912;28;19936;-63
2024/03/02 00:27:13;;;;;;;;;;;5.50;99.90;;;;;;5060805;28;19932;-63
2024/03/02 00:29:45;;;;;;;;;;;5.50;99.90;;;;;;5064583;28;19929;-64
2024/03/02 00:32:13;;;;;;;;;;;5.50;99.90;;;;;;5067211;28;19924;-63
2024/03/02 00:34:40;;;;;;;;;;;5.50;99.90;;;;;;5052608;28;19970;-64
2024/03/02 00:37:07;;;;;;;;;;;5.40;99.90;;;;;;5050124;28;20297;-64
2024/03/02 00:39:39;;;;;;;;;;;5.40;99.90;;;;;;5053032;28;19932;-64
2024/03/02 00:42:05;;;;;;;;;;;5.40;99.90;;;;;;5056433;28;20598;-64
2024/03/02 00:44:35;;;;;;;;;;;5.40;99.90;;;;;;5060577;28;19968;-63
2024/03/02 00:47:07;;;;;;;;;;;5.40;99.90;;;;;;5066819;28;20408;-63
2024/03/02 00:49:38;;;;;;;;;;;5.40;99.90;;;;;;5064274;28;20553;-64
2024/03/02 00:52:06;;;;;;;;;;;5.40;99.90;;;;;;5065772;28;19935;-64
2024/03/02 00:54:33;;;;;;;;;;;5.40;99.90;;;;;;5068468;28;20015;-63
2024/03/02 00:57:05;;;;;;;;;;;5.40;99.90;;;;;;5069790;28;19931;-63
2024/03/02 00:59:37;;;;;;;;;;;5.40;99.90;;;;;;5057531;28;19931;-64
2024/03/02 01:02:09;;;;;;;;;;;5.40;99.90;;;;;;5055081;28;20393;-64
2024/03/02 01:04:41;;;;;;;;;;;5.30;99.90;;;;;;5069875;28;19931;-64
2024/03/02 01:07:13;;;;;;;;;;;5.40;99.90;;;;;;5071772;28;20310;-63
2024/03/02 01:09:41;;;;;;;;;;;5.30;99.90;;;;;;5069873;28;19928;-64
2024/03/02 01:12:12;;;;;;;;;;;5.30;99.90;;;;;;5061177;28;19924;-63
2024/03/02 01:14:44;;;;;;;;;;;5.30;99.90;;;;;;5061795;28;19931;-63
2024/03/02 01:17:16;;;;;;;;;;;5.30;99.90;;;;;;5065103;28;20027;-64
2024/03/02 01:19:47;;;;;;;;;;;5.30;99.90;;;;;;5067086;28;20011;-63
2024/03/02 01:22:14;;;;;;;;;;;5.30;99.90;;;;;;5058190;28;20019;-64
2024/03/02 01:24:46;;;;;;;;;;;5.30;99.90;;;;;;5058258;28;20351;-64
2024/03/02 01:27:18;;;;;;;;;;;5.30;99.90;;;;;;5057197;28;19928;-64
2024/03/02 01:29:50;;;;;;;;;;;5.30;99.90;;;;;;5057105;28;20431;-63
2024/03/02 01:32:22;;;;;;;;;;;5.30;99.90;;;;;;5071554;28;20400;-64
2024/03/02 01:34:54;;;;;;;;;;;5.30;99.90;;;;;;5062102;28;19928;-63
2024/03/02 01:37:26;;;;;;;;;;;5.30;99.90;;;;;;5061124;28;20025;-64
2024/03/02 01:39:58;;;;;;;;;;;5.30;99.90;;;;;;5064133;28;20291;-64
2024/03/02 01:42:30;;;;;;;;;;;5.40;99.90;;;;;;5063903;28;20400;-63
2024/03/02 01:45:03;;;;;;;;;;;5.30;99.90;;;;;;5062123;28;19964;-64
2024/03/02 01:47:30;;;;;;;;;;;5.30;99.90;;;;;;5066849;28;19928;-63
2024/03/02 01:50:02;;;;;;;;;;;5.30;99.90;;;;;;5058091;28;20008;-64
2024/03/02 01:52:33;;;;;;;;;;;5.30;99.90;;;;;;5054866;28;19925;-64
2024/03/02 01:55:00;;;;;;;;;;;5.30;99.90;;;;;;5054983;28;20384;-63
2024/03/02 01:57:32;;;;;;;;;;;5.30;99.90;;;;;;5063160;28;19925;-63
2024/03/02 01:59:59;;;;;;;;;;;5.30;99.90;;;;;;5070428;28;19924;-63
2024/03/02 02:02:37;;;;;;;;;;;5.30;99.90;;;;;;5057592;28;20403;-64
2024/03/02 02:05:09;;;;;;;;;;;5.30;99.90;;;;;;5062000;28;19925;-64
2024/03/02 02:07:36;;;;;;;;;;;5.20;99.90;;;;;;5064946;28;19929;-63
2024/03/02 02:10:09;;;;;;;;;;;5.30;99.90;;;;;;5058151;28;20405;-63
2024/03/02 02:12:41;;;;;;;;;;;5.30;99.90;;;;;;5061745;28;19925;-63
2024/03/02 02:15:27;;;;;;;;;;;5.30;99.90;;;;;;5066454;28;19963;-63
2024/03/02 02:17:59;;;;;;;;;;;5.30;99.90;;;;;;5062998;28;20007;-63
2024/03/02 02:20:31;;;;;;;;;;;5.30;99.90;;;;;;5054000;28;20016;-63
2024/03/02 02:23:01;;;;;;;;;;;5.30;99.90;;;;;;5058010;28;20641;-64
2024/03/02 02:25:33;;;;;;;;;;;5.30;99.90;;;;;;5068230;28;19924;-63
2024/03/02 02:28:06;;;;;;;;;;;5.30;99.90;;;;;;5057642;28;19929;-64
2024/03/02 02:30:38;;;;;;;;;;;5.20;99.90;;;;;;5066303;28;19943;-64
2024/03/02 02:33:04;;;;;;;;;;;5.20;99.90;;;;;;5063379;28;20047;-64
2024/03/02 02:35:31;;;;;;;;;;;5.20;99.90;;;;;;5062837;28;19928;-63
2024/03/02 02:38:04;;;;;;;;;;;5.10;99.90;;;;;;5062609;28;19929;-64
2024/03/02 02:40:31;;;;;;;;;;;5.10;99.90;;;;;;5066867;28;19928;-64
2024/03/02 02:42:59;;;;;;;;;;;5.00;99.90;;;;;;5068471;28;19925;-63
2024/03/02 02:45:25;;;;;;;;;;;5.00;99.90;;;;;;5054990;28;20027;-64
2024/03/02 02:47:52;;;;;;;;;;;5.00;99.90;;;;;;5053337;28;19933;-64
2024/03/02 02:50:19;;;;;;;;;;;4.90;99.90;;;;;;5071744;28;20023;-63
2024/03/02 02:52:51;;;;;;;;;;;4.90;99.90;;;;;;5067553;28;20015;-63
2024/03/02 02:55:17;;;;;;;;;;;4.90;99.90;;;;;;5062384;28;19932;-63
2024/03/02 02:57:49;;;;;;;;;;;4.90;99.90;;;;;;5059511;28;19980;-64
2024/03/02 03:00:22;;;;;;;;;;;4.80;99.90;;;;;;5058921;28;19928;-63
2024/03/02 03:02:54;;;;;;;;;;;4.80;99.90;;;;;;5060926;28;19929;-63
2024/03/02 03:05:26;;;;;;;;;;;4.80;99.90;;;;;;5059354;28;20351;-63
2024/03/02 03:07:53;;;;;;;;;;;4.70;99.90;;;;;;5052417;28;20023;-63
2024/03/02 03:10:22;;;;;;;;;;;4.70;99.90;;;;;;5052252;28;19929;-64
2024/03/02 03:12:55;;;;;;;;;;;4.70;99.90;;;;;;5065818;28;19928;-64
2024/03/02 03:15:22;;;;;;;;;;;4.70;99.90;;;;;;5070175;28;19924;-63
2024/03/02 03:17:50;;;;;;;;;;;4.70;99.90;;;;;;5063116;28;20002;-64
2024/03/02 03:20:23;;;;;;;;;;;4.70;99.90;;;;;;5060155;28;19925;-64
2024/03/02 03:22:50;;;;;;;;;;;4.70;99.90;;;;;;5051702;28;19983;-64
2024/03/02 03:25:22;;;;;;;;;;;4.70;99.90;;;;;;5059828;28;19929;-64
2024/03/02 03:27:54;;;;;;;;;;;4.80;99.90;;;;;;5061606;28;19935;-64
2024/03/02 03:30:25;;;;;;;;;;;4.80;99.90;;;;;;5060101;28;19958;-64
2024/03/02 03:32:52;;;;;;;;;;;4.80;99.90;;;;;;5058441;28;19931;-64
2024/03/02 03:35:24;;;;;;;;;;;4.80;99.90;;;;;;5056045;28;20389;-63
2024/03/02 03:37:56;;;;;;;;;;;4.80;99.90;;;;;;5053105;28;20376;-64
2024/03/02 03:40:28;;;;;;;;;;;4.90;99.90;;;;;;5051773;28;19929;-64
2024/03/02 03:43:00;;;;;;;;;;;4.90;99.90;;;;;;5051553;28;19935;-64
2024/03/02 03:45:27;;;;;;;;;;;4.90;99.90;;;;;;5063935;28;19955;-63
2024/03/02 03:47:59;;;;;;;;;;;4.90;99.90;;;;;;5061609;28;19924;-64
2024/03/02 03:50:25;;;;;;;;;;;4.90;99.90;;;;;;5064799;28;19931;-64
2024/03/02 03:52:57;;;;;;;;;;;4.90;99.90;;;;;;5062159;28;19924;-63
2024/03/02 03:55:24;;;;;;;;;;;4.90;99.90;;;;;;5051460;28;19925;-64
2024/03/02 03:57:56;;;;;;;;;;;4.90;99.90;;;;;;5058256;28;19929;-64
2024/03/02 04:00:22;;;;;;;;;;;4.90;99.90;;;;;;5055184;28;19951;-63
2024/03/02 04:02:54;;;;;;;;;;;4.90;99.90;;;;;;5053439;28;19931;-64
2024/03/02 04:05:25;;;;;;;;;;;4.90;99.90;;;;;;5064424;28;20452;-64
2024/03/02 04:07:57;;;;;;;;;;;4.90;99.90;;;;;;5066343;28;20416;-64
2024/03/02 04:10:25;;;;;;;;;;;4.90;99.90;;;;;;5067575;28;19925;-63
2024/03/02 04:12:51;;;;;;;;;;;4.90;99.90;;;;;;5066978;28;19924;-64
2024/03/02 04:15:23;;;;;;;;;;;4.90;99.90;;;;;;5065333;28;19929;-64
2024/03/02 04:17:55;;;;;;;;;;;4.90;99.90;;;;;;5062290;28;19925;-63
2024/03/02 04:20:27;;;;;;;;;;;4.90;99.90;;;;;;5061554;28;19924;-64
2024/03/02 04:22:59;;;;;;;;;;;4.90;99.90;;;;;;5051062;28;20031;-64
2024/03/02 04:25:30;;;;;;;;;;;4.90;99.90;;;;;;5064404;28;20447;-64
2024/03/02 04:28:02;;;;;;;;;;;4.80;99.90;;;;;;5055263;28;20016;-64
2024/03/02 04:30:34;;;;;;;;;;;4.80;99.90;;;;;;5053482;28;20020;-64
2024/03/02 04:33:02;;;;;;;;;;;4.80;99.90;;;;;;5065602;28;19935;-64
2024/03/02 04:35:29;;;;;;;;;;;4.80;99.90;;;;;;5050970;28;19929;-63
2024/03/02 04:38:01;;;;;;;;;;;4.90;99.90;;;;;;5050946;28;20312;-64
2024/03/02 04:40:32;;;;;;;;;;;4.90;99.90;;;;;;5056092;28;19946;-64
2024/03/02 04:42:59;;;;;;;;;;;4.90;99.90;;;;;;5057461;28;20023;-64
2024/03/02 04:45:26;;;;;;;;;;;4.80;99.90;;;;;;5059482;28;20471;-64
2024/03/02 04:47:58;;;;;;;;;;;4.80;99.90;;;;;;5061998;28;20424;-63
2024/03/02 04:50:24;;;;;;;;;;;4.80;99.90;;;;;;5063251;28;19930;-70
2024/03/02 04:52:56;;;;;;;;;;;4.80;99.90;;;;;;5055825;28;19951;-63
2024/03/02 04:58:00;;;;;;;;;;;4.80;99.90;;;;;;5056757;28;19925;-64
2024/03/02 05:00:32;;;;;;;;;;;4.80;99.90;;;;;;5051294;28;19928;-63
2024/03/02 05:03:04;;;;;;;;;;;4.70;99.90;;;;;;5056245;28;20016;-64
2024/03/02 05:05:37;;;;;;;;;;;4.70;99.90;;;;;;5057605;28;19925;-64
2024/03/02 05:08:11;;;;;;;;;;;4.70;99.90;;;;;;5057469;28;19971;-63
2024/03/02 05:10:43;;;;;;;;;;;4.60;99.90;;;;;;5057553;28;20423;-63
2024/03/02 05:13:17;;;;;;;;;;;4.60;99.90;;;;;;5059598;28;19968;-63
2024/03/02 05:15:49;;;;;;;;;;;4.60;99.90;;;;;;5062081;28;20426;-63
2024/03/02 05:18:20;;;;;;;;;;;4.60;99.90;;;;;;5056335;28;19931;-63
2024/03/02 05:20:47;;;;;;;;;;;4.60;99.90;;;;;;5066676;28;20024;-63
2024/03/02 05:23:19;;;;;;;;;;;4.60;99.90;;;;;;5066332;28;20399;-63
2024/03/02 05:25:51;;;;;;;;;;;4.60;99.90;;;;;;5065264;28;19928;-63
2024/03/02 05:28:23;;;;;;;;;;;4.50;99.90;;;;;;5068058;28;19924;-64
2024/03/02 05:30:54;;;;;;;;;;;4.50;99.90;;;;;;5057438;28;19931;-64
2024/03/02 05:33:22;;;;;;;;;;;4.50;99.90;;;;;;5059204;28;19928;-64
2024/03/02 05:35:54;;;;;;;;;;;4.50;99.90;;;;;;5066917;28;20281;-64
2024/03/02 05:38:26;;;;;;;;;;;4.50;99.90;;;;;;5062941;28;20039;-63
2024/03/02 05:40:52;;;;;;;;;;;4.50;99.90;;;;;;5064796;28;20027;-63
2024/03/02 05:43:24;;;;;;;;;;;4.40;99.90;;;;;;5067134;28;19980;-63
2024/03/02 05:45:56;;;;;;;;;;;4.40;99.90;;;;;;5083375;28;20350;-64
2024/03/02 05:48:23;;;;;;;;;;;4.40;99.90;;;;;;5055655;28;20380;-64
2024/03/02 05:50:54;;;;;;;;;;;4.40;99.90;;;;;;5055283;28;19931;-64
2024/03/02 05:53:26;;;;;;;;;;;4.40;99.90;;;;;;5072970;28;20286;-63
2024/03/02 05:55:59;;;;;;;;;;;4.30;99.90;;;;;;5065170;28;20005;-63
2024/03/02 06:01:09;;;;;;;;;;;4.30;99.90;;;;;;5062977;28;20010;-63
2024/03/02 06:03:41;;;;;;;;;;;4.30;99.90;;;;;;5066985;28;19935;-64
2024/03/02 06:06:13;;;;;;;;;;;4.30;99.90;;;;;;5048112;28;20401;-63
2024/03/02 06:08:40;;;;;;;;;;;4.20;99.90;;;;;;5059076;28;20016;-63
2024/03/02 06:11:07;;;;;;;;;;;4.10;99.90;;;;;;5063655;28;19932;-63
2024/03/02 06:13:38;;;;;;;;;;;4.10;99.90;;;;;;5061994;28;20282;-64
2024/03/02 06:16:10;;;;;;;;;;;4.20;99.90;;;;;;5053415;28;20023;-64
2024/03/02 06:18:37;;;;;;;;;;;4.10;99.90;;;;;;5053249;28;19929;-64
2024/03/02 06:21:09;;;;;;;;;;;4.10;99.90;;;;;;5056525;28;19925;-64
2024/03/02 06:23:40;;;;;;;;;;;4.10;99.90;;;;;;5059231;28;19924;-63
2024/03/02 06:26:07;;;;;;;;;;;4.10;99.90;;;;;;5064153;28;19925;-63
2024/03/02 06:28:34;;;;;;;;;;;4.20;99.90;;;;;;5062936;28;19935;-63
2024/03/02 06:31:01;;;;;;;;;;;4.20;99.90;;;;;;5061106;28;20304;-64
2024/03/02 06:33:28;;;;;;;;;;;4.20;99.90;;;;;;5062427;28;20388;-64
2024/03/02 06:35:55;;;;;;;;;;;4.20;99.90;;;;;;5064701;28;19935;-63
2024/03/02 06:38:27;;;;;;;;;;;4.30;99.90;;;;;;5068003;28;20358;-63
2024/03/02 06:40:59;;;;;;;;;;;4.30;99.90;;;;;;5082330;28;19975;-63
2024/03/02 06:43:31;;;;;;;;;;;4.30;99.90;;;;;;5069486;28;19940;-63
2024/03/02 06:45:57;;;;;;;;;;;4.30;99.90;;;;;;5052905;28;19928;-64
2024/03/02 06:48:29;;;;;;;;;;;4.30;99.90;;;;;;5064264;28;19935;-63
2024/03/02 06:51:01;;;;;;;;;;;4.30;99.90;;;;;;5057800;28;19925;-64
2024/03/02 06:53:33;;;;;;;;;;;4.40;99.90;;;;;;5069380;28;19929;-64
2024/03/02 06:56:06;;;;;;;;;;;4.40;99.90;;;;;;5067972;28;19928;-64
2024/03/02 06:58:33;;;;;;;;;;;4.40;99.90;;;;;;5063834;28;19924;-64
2024/03/02 07:01:05;;;;;;;;;;;4.50;99.90;;;;;;5064674;28;19928;-62
2024/03/02 07:03:39;;;;;;;;;;;4.50;99.90;;;;;;5061835;28;19929;-64
2024/03/02 07:06:11;;;;;;;;;;;4.50;99.90;;;;;;5063217;28;19978;-63
2024/03/02 07:08:43;;;;;;;;;;;4.60;99.90;;;;;;5064762;28;20298;-63
2024/03/02 07:11:09;;;;;;;;;;;4.60;99.90;;;;;;5055246;28;19932;-63
2024/03/02 07:13:41;;;;;;;;;;;4.60;99.90;;;;;;5054886;28;20400;-63
2024/03/02 07:16:27;;;;;;;;;;;4.70;99.90;;;;;;5059904;28;19924;-63
2024/03/02 07:19:01;;;;;;;;;;;4.80;99.90;;;;;;5066377;28;19931;-64
2024/03/02 07:21:27;;;;;;;;;;;4.90;99.90;;;;;;5064701;28;20339;-64
2024/03/02 07:24:00;;;;;;;;;;;5.00;99.90;;;;;;5061899;28;19924;-63
2024/03/02 07:26:32;;;;;;;;;;;5.10;99.90;;;;;;5063302;28;19931;-64
2024/03/02 07:29:04;;;;;;;;;;;5.10;99.90;;;;;;5062762;28;19964;-64
2024/03/02 07:31:36;;;;;;;;;;;5.20;99.90;;;;;;5065131;28;19925;-64
2024/03/02 07:34:03;;;;;;;;;;;5.30;99.90;;;;;;5067751;28;20384;-64
2024/03/02 07:36:36;;;;;;;;;;;5.40;99.90;;;;;;5067717;28;19972;-63
2024/03/02 07:39:08;;;;;;;;;;;5.40;99.90;;;;;;5064093;28;19924;-64
2024/03/02 07:41:40;;;;;;;;;;;5.50;99.90;;;;;;5054685;28;20304;-63
2024/03/02 07:44:15;;;;;;;;;;;5.60;99.90;;;;;;5055192;28;20043;-64
2024/03/02 07:46:49;;;;;;;;;;;5.60;99.90;;;;;;5058335;28;19925;-64
2024/03/02 07:49:16;;;;;;;;;;;5.70;99.90;;;;;;5062082;28;19924;-64
2024/03/02 07:51:48;;;;;;;;;;;5.70;99.90;;;;;;5063346;28;19929;-64
2024/03/02 07:54:20;;;;;;;;;;;5.70;99.90;;;;;;5063581;28;20446;-63
2024/03/02 07:56:47;;;;;;;;;;;5.70;99.90;;;;;;5065318;28;20299;-64
2024/03/02 07:59:19;;;;;;;;;;;5.70;99.90;;;;;;5062979;28;19924;-64
2024/03/02 08:01:51;;;;;;;;;;;5.80;99.90;;;;;;5059307;28;19992;-64
2024/03/02 08:04:23;;;;;;;;;;;5.80;99.90;;;;;;5051551;28;19986;-64
2024/03/02 08:06:49;;;;;;;;;;;5.90;99.90;;;;;;5055930;28;19925;-64
2024/03/02 08:09:16;;;;;;;;;;;6.00;99.90;;;;;;5055460;28;19925;-64
2024/03/02 08:11:48;;;;;;;;;;;6.10;99.90;;;;;;5057249;28;19971;-63
2024/03/02 08:14:15;;;;;;;;;;;6.20;99.90;;;;;;5058398;28;19925;-64
2024/03/02 08:16:47;;;;;;;;;;;6.20;99.90;;;;;;5062989;28;19935;-63
2024/03/02 08:19:19;;;;;;;;;;;6.30;99.90;;;;;;5071120;28;19964;-64
2024/03/02 08:21:45;;;;;;;;;;;6.40;99.90;;;;;;5063871;28;20857;-65
2024/03/02 08:24:17;;;;;;;;;;;6.50;99.90;;;;;;5057080;28;20507;-64
2024/03/02 08:26:44;;;;;;;;;;;6.50;99.90;;;;;;5057616;28;20419;-64
2024/03/02 08:29:16;;;;;;;;;;;6.60;99.90;;;;;;5057026;28;19924;-64
2024/03/02 08:31:43;;;;;;;;;;;6.70;99.90;;;;;;5050760;28;19936;-63
2024/03/02 08:34:14;;;;;;;;;;;6.70;99.90;;;;;;5064984;28;19924;-63
2024/03/02 08:36:46;;;;;;;;;;;6.80;99.90;;;;;;5061622;28;19929;-63
2024/03/02 08:39:15;;;;;;;;;;;6.90;99.90;;;;;;5062442;28;19938;-63
2024/03/02 08:41:43;;;;;;;;;;;7.00;99.90;;;;;;5065780;28;19956;-63
2024/03/02 08:44:15;;;;;;;;;;;7.10;99.90;;;;;;5063153;28;20384;-64
2024/03/02 08:46:41;;;;;;;;;;;7.20;99.90;;;;;;5067571;28;20369;-63
2024/03/02 08:49:13;;;;;;;;;;;7.30;99.90;;;;;;5057847;28;20041;-63
2024/03/02 08:51:40;;;;;;;;;;;7.40;99.90;;;;;;5062944;28;20019;-63
2024/03/02 08:54:08;;;;;;;;;;;7.50;99.90;;;;;;5058223;28;19989;-64
2024/03/02 08:56:40;;;;;;;;;;;7.50;99.90;;;;;;5055989;28;19931;-63
2024/03/02 08:59:11;;;;;;;;;;;7.70;99.90;;;;;;5060637;28;19925;-64
2024/03/02 09:01:43;;;;;;;;;;;7.70;99.90;;;;;;5058669;28;19928;-64
2024/03/02 09:04:10;;;;;;;;;;;7.80;99.90;;;;;;5065032;28;19958;-68
2024/03/02 09:06:48;;;;;;;;;;;7.90;99.90;;;;;;5067940;28;20011;-64
2024/03/02 09:09:21;;;;;;;;;;;8.00;99.90;;;;;;5067401;28;21053;-64
2024/03/02 09:11:47;;;;;;;;;;;8.20;99.90;;;;;;5066972;28;19979;-64
2024/03/02 09:14:17;;;;;;;;;;;8.30;99.90;;;;;;5065287;28;19935;-64
2024/03/02 09:16:49;;;;;;;;;;;8.30;99.90;;;;;;5054328;28;19994;-64
2024/03/02 09:19:16;;;;;;;;;;;8.40;99.90;;;;;;5066901;28;20019;-64
2024/03/02 09:21:48;;;;;;;;;;;8.50;99.90;;;;;;5067967;28;19931;-63
2024/03/02 09:24:14;;;;;;;;;;;8.60;99.90;;;;;;5063120;28;19932;-64
2024/03/02 09:26:41;;;;;;;;;;;8.70;99.90;;;;;;5070610;28;20043;-64
2024/03/02 09:29:09;;;;;;;;;;;8.70;99.90;;;;;;5069594;28;20277;-64
2024/03/02 09:31:41;;;;;;;;;;;8.70;99.90;;;;;;5066086;28;19940;-64
2024/03/02 09:34:08;;;;;;;;;;;8.80;99.90;;;;;;5051502;28;20031;-63
2024/03/02 09:36:41;;;;;;;;;;;8.80;99.90;;;;;;5071007;28;19930;-64
2024/03/02 09:39:12;;;;;;;;;;;9.00;99.90;;;;;;5068275;28;20408;-64
2024/03/02 09:41:44;;;;;;;;;;;9.00;99.90;;;;;;5064020;28;20417;-64
2024/03/02 09:44:16;;;;;;;;;;;9.10;99.90;;;;;;5061186;28;19969;-64
2024/03/02 09:46:49;;;;;;;;;;;9.10;99.90;;;;;;5060083;28;19926;-63
2024/03/02 09:49:20;;;;;;;;;;;9.10;99.90;;;;;;5057904;28;20408;-63
2024/03/02 09:51:52;;;;;;;;;;;9.20;99.90;;;;;;5063721;28;19944;-64
2024/03/02 09:54:24;;;;;;;;;;;9.30;99.90;;;;;;5069160;28;19929;-63
2024/03/02 09:56:56;;;;;;;;;;;9.40;99.90;;;;;;5064872;28;20016;-63
2024/03/02 09:59:29;;;;;;;;;;;9.40;99.90;;;;;;5069695;28;19972;-63
2024/03/02 10:02:02;;;;;;;;;;;9.50;99.90;;;;;;5067749;28;20430;-64
2024/03/02 10:04:35;;;;;;;;;;;9.60;99.90;;;;;;5062853;28;19928;-63
2024/03/02 10:07:15;;;;;;;;;;;9.70;99.90;;;;;;5068181;28;20570;-64
2024/03/02 10:09:47;;;;;;;;;;;9.90;99.90;;;;;;5066492;28;19924;-64
2024/03/02 10:12:19;;;;;;;;;;;10.00;99.90;;;;;;5066716;28;19924;-63
2024/03/02 10:15:02;;;;;;;;;;;10.20;99.90;;;;;;5067707;28;19931;-64
2024/03/02 10:17:34;;;;;;;;;;;10.30;99.90;;;;;;5070206;28;19929;-64
2024/03/02 10:20:21;;;;;;;;;;;10.40;99.90;;;;;;5068030;28;19925;-64
2024/03/02 10:22:53;;;;;;;;;;;10.50;99.90;;;;;;5066399;28;20300;-63
2024/03/02 10:25:32;;;;;;;;;;;10.40;99.90;;;;;;5068520;28;20308;-63
2024/03/02 10:28:05;;;;;;;;;;;10.40;99.90;;;;;;5068756;28;19924;-63
2024/03/02 10:30:37;;;;;;;;;;;10.40;99.90;;;;;;5066817;28;19924;-63
2024/03/02 10:33:09;;;;;;;;;;;10.40;99.90;;;;;;5069986;28;19925;-64
2024/03/02 10:35:37;;;;;;;;;;;10.40;99.90;;;;;;5072031;28;19970;-63
2024/03/02 10:38:06;;;;;;;;;;;10.40;99.90;;;;;;5063935;28;19925;-64
2024/03/02 10:40:37;;;;;;;;;;;10.50;99.90;;;;;;5066184;28;20019;-63
2024/03/02 10:43:10;;;;;;;;;;;10.50;99.90;;;;;;5069228;28;20019;-65
2024/03/02 10:45:42;;;;;;;;;;;10.60;99.90;;;;;;5062702;28;19932;-64
2024/03/02 10:48:14;;;;;;;;;;;10.70;99.90;;;;;;5068377;28;19934;-64
2024/03/02 10:50:45;;;;;;;;;;;10.80;99.90;;;;;;5061692;28;19943;-64
2024/03/02 10:53:17;;;;;;;;;;;10.90;99.90;;;;;;5066183;28;19944;-63
2024/03/02 10:55:53;;;;;;;;;;;11.10;99.90;;;;;;5067300;28;19932;-64
2024/03/02 10:58:29;;;;;;;;;;;11.20;99.90;;;;;;5068789;28;19978;-64
2024/03/02 11:01:03;;;;;;;;;;;11.30;99.90;;;;;;5060956;28;19936;-63
2024/03/02 11:03:33;;;;;;;;;;;11.40;99.90;;;;;;5065040;28;19928;-63
2024/03/02 11:06:07;;;;;;;;;;;11.50;99.90;;;;;;5063510;28;19951;-63
2024/03/02 11:08:40;;;;;;;;;;;11.60;99.90;;;;;;5063418;28;19986;-63
2024/03/02 11:11:15;;;;;;;;;;;11.70;99.90;;;;;;5068727;28;19924;-63
2024/03/02 11:13:49;;;;;;;;;;;11.80;99.90;;;;;;5060804;28;19929;-63
2024/03/02 11:16:34;;;;;;;;;;;11.90;99.90;;;;;;5063234;28;20403;-63
2024/03/02 11:19:15;;;;;;;;;;;12.00;99.90;;;;;;5065688;28;20367;-64
2024/03/02 11:21:42;;;;;;;;;;;12.10;99.90;;;;;;5066469;28;19933;-63
2024/03/02 11:24:21;;;;;;;;;;;12.10;99.90;;;;;;5068145;28;19929;-63
2024/03/02 11:26:53;;;;;;;;;;;12.10;99.90;;;;;;5062145;28;20035;-63
2024/03/02 11:29:36;;;;;;;;;;;12.20;99.90;;;;;;5065606;28;19928;-63
2024/03/02 11:32:14;;;;;;;;;;;12.30;99.90;;;;;;5057475;28;19925;-63
2024/03/02 11:34:47;;;;;;;;;;;12.40;99.90;;;;;;5063188;28;19932;-63
2024/03/02 11:37:23;;;;;;;;;;;12.50;99.90;;;;;;5060270;28;19933;-62
2024/03/02 11:39:54;;;;;;;;;;;12.60;99.90;;;;;;5065260;28;19924;-63
2024/03/02 11:42:21;;;;;;;;;;;12.60;99.90;;;;;;5061932;28;20012;-63
2024/03/02 11:44:56;;;;;;;;;;;12.60;99.90;;;;;;5074970;28;19925;-63
2024/03/02 11:47:31;;;;;;;;;;;12.60;99.90;;;;;;5060690;28;19978;-63
2024/03/02 11:50:06;;;;;;;;;;;12.70;99.90;;;;;;5067560;28;19964;-63
2024/03/02 11:52:40;;;;;;;;;;;12.70;99.90;;;;;;5065698;28;19959;-63
2024/03/02 11:55:12;;;;;;;;;;;12.80;99.90;;;;;;5056150;28;20347;-63
2024/03/02 11:57:39;;;;;;;;;;;12.90;99.90;;;;;;5060505;28;20311;-63
2024/03/02 12:00:16;;;;;;;;;;;12.90;99.90;;;;;;5064735;28;20023;-65
2024/03/02 12:03:00;;;;;;;;;;;13.00;99.90;;;;;;5070472;28;19930;-63
2024/03/02 12:05:28;;;;;;;;;;;13.00;99.90;;;;;;5056935;28;19924;-63
2024/03/02 12:08:00;;;;;;;;;;;13.10;99.90;;;;;;5063579;28;20309;-63
2024/03/02 12:10:33;;;;;;;;;;;13.10;99.90;;;;;;5064994;28;19931;-63
2024/03/02 12:13:10;;;;;;;;;;;13.20;99.90;;;;;;5061950;28;19936;-63
2024/03/02 12:15:42;;;;;;;;;;;13.30;99.90;;;;;;5061652;28;20021;-63
2024/03/02 12:18:14;;;;;;;;;;;13.30;99.90;;;;;;5065217;28;19924;-65
2024/03/02 12:20:48;;;;;;;;;;;13.30;99.90;;;;;;5059514;28;19938;-63
2024/03/02 12:23:14;;;;;;;;;;;13.30;99.90;;;;;;5063069;28;20023;-63
2024/03/02 12:25:46;;;;;;;;;;;13.30;99.90;;;;;;5064279;28;19928;-63
2024/03/02 12:28:19;;;;;;;;;;;13.40;99.90;;;;;;5060277;28;19928;-62
2024/03/02 12:30:51;;;;;;;;;;;13.30;99.90;;;;;;5059005;28;20584;-62
2024/03/02 12:33:23;;;;;;;;;;;13.40;99.90;;;;;;5062674;28;20015;-62
2024/03/02 12:35:56;;;;;;;;;;;13.30;99.90;;;;;;5065439;28;20902;-62
2024/03/02 12:38:29;;;;;;;;;;;13.30;99.90;;;;;;5064195;28;19925;-63
2024/03/02 12:40:56;;;;;;;;;;;13.30;99.90;;;;;;5064281;28;19932;-62
2024/03/02 12:43:23;;;;;;;;;;;13.40;99.90;;;;;;5064821;28;19933;-62
2024/03/02 12:45:55;;;;;;;;;;;13.50;99.90;;;;;;5065970;28;19972;-62
2024/03/02 12:48:27;;;;;;;;;;;13.50;99.90;;;;;;5061674;28;19960;-62
2024/03/02 12:50:59;;;;;;;;;;;13.50;99.90;;;;;;5059860;28;19932;-63
2024/03/02 12:53:32;;;;;;;;;;;13.50;99.90;;;;;;5050734;28;19928;-63
2024/03/02 12:56:04;;;;;;;;;;;13.50;99.90;;;;;;5055048;28;19932;-62
2024/03/02 12:58:38;;;;;;;;;;;13.50;99.90;;;;;;5059135;28;19963;-63
2024/03/02 13:01:11;;;;;;;;;;;13.50;99.90;;;;;;5061007;28;19924;-63
2024/03/02 13:03:42;;;;;;;;;;;13.70;99.90;;;;;;5060216;28;20016;-63
2024/03/02 13:06:14;;;;;;;;;;;13.70;99.90;;;;;;5060613;28;19990;-62
2024/03/02 13:08:46;;;;;;;;;;;13.70;99.90;;;;;;5057863;28;20018;-63
2024/03/02 13:11:19;;;;;;;;;;;13.80;99.90;;;;;;5062566;28;19932;-63
2024/03/02 13:13:46;;;;;;;;;;;13.80;99.90;;;;;;5061610;28;19932;-62
2024/03/02 13:16:20;;;;;;;;;;;13.80;99.90;;;;;;5064881;28;19968;-62
2024/03/02 13:18:51;;;;;;;;;;;13.80;99.90;;;;;;5065586;28;19951;-63
2024/03/02 13:21:18;;;;;;;;;;;13.70;99.90;;;;;;5063800;28;19931;-63
2024/03/02 13:23:50;;;;;;;;;;;13.70;99.90;;;;;;5062991;28;19929;-62
2024/03/02 13:26:21;;;;;;;;;;;13.70;99.90;;;;;;5063884;28;19954;-63
2024/03/02 13:28:48;;;;;;;;;;;13.70;99.90;;;;;;5065236;28;19929;-62
2024/03/02 13:31:20;;;;;;;;;;;13.70;99.90;;;;;;5061516;28;20308;-63
2024/03/02 13:33:52;;;;;;;;;;;13.80;99.90;;;;;;5062556;28;19936;-62
2024/03/02 13:36:19;;;;;;;;;;;13.90;99.90;;;;;;5066503;28;19935;-63
2024/03/02 13:38:51;;;;;;;;;;;14.00;99.90;;;;;;5079180;28;19924;-63
2024/03/02 13:41:18;;;;;;;;;;;13.90;99.90;;;;;;5056281;28;20588;-62
2024/03/02 13:43:45;;;;;;;;;;;13.90;99.90;;;;;;5059322;28;19956;-63
2024/03/02 13:46:12;;;;;;;;;;;13.90;99.90;;;;;;5058908;28;20306;-63
2024/03/02 13:48:44;;;;;;;;;;;14.00;99.90;;;;;;5067850;28;20469;-63
2024/03/02 13:51:16;;;;;;;;;;;14.10;99.90;;;;;;5064922;28;19931;-63
2024/03/02 13:53:47;;;;;;;;;;;14.20;99.90;;;;;;5064398;28;19939;-63
2024/03/02 13:56:14;;;;;;;;;;;14.20;99.90;;;;;;5062609;28;19935;-63
2024/03/02 13:58:43;;;;;;;;;;;14.20;99.90;;;;;;5065703;28;19932;-62
2024/03/02 14:01:10;;;;;;;;;;;14.30;99.90;;;;;;5066576;28;20024;-62
2024/03/02 14:03:37;;;;;;;;;;;14.30;99.90;;;;;;5065847;28;19947;-63
2024/03/02 14:06:09;;;;;;;;;;;14.20;99.90;;;;;;5059074;28;19928;-63
2024/03/02 14:08:42;;;;;;;;;;;14.30;99.90;;;;;;5070562;28;20560;-63
2024/03/02 14:11:11;;;;;;;;;;;14.30;99.90;;;;;;5065549;28;19931;-63
2024/03/02 14:13:44;;;;;;;;;;;14.20;99.90;;;;;;5068324;28;19967;-63
2024/03/02 14:16:16;;;;;;;;;;;14.30;99.90;;;;;;5080917;28;19932;-63
2024/03/02 14:18:48;;;;;;;;;;;14.30;99.90;;;;;;5069987;28;19948;-63
2024/03/02 14:21:20;;;;;;;;;;;14.20;99.90;;;;;;5070919;28;19967;-62
2024/03/02 14:23:51;;;;;;;;;;;14.30;99.90;;;;;;5070768;28;19928;-63
2024/03/02 14:26:23;;;;;;;;;;;14.20;99.90;;;;;;5064556;28;19989;-63
2024/03/02 14:28:55;;;;;;;;;;;14.20;99.90;;;;;;5067261;28;19956;-63
2024/03/02 14:31:26;;;;;;;;;;;14.20;99.90;;;;;;5067676;28;20018;-63
2024/03/02 14:34:01;;;;;;;;;;;14.30;99.90;;;;;;5063827;28;19952;-62
2024/03/02 14:36:33;;;;;;;;;;;14.40;99.90;;;;;;5070769;28;19924;-63
2024/03/02 14:39:09;;;;;;;;;;;14.40;99.90;;;;;;5056896;28;19951;-63
2024/03/02 14:41:40;;;;;;;;;;;14.50;99.90;;;;;;5061768;28;19932;-63
2024/03/02 14:44:12;;;;;;;;;;;14.60;99.90;;;;;;5067556;28;19932;-63
2024/03/02 14:46:47;;;;;;;;;;;14.60;99.90;;;;;;5061125;28;19976;-63
2024/03/02 14:49:19;;;;;;;;;;;14.60;99.90;;;;;;5062303;28;20031;-63
2024/03/02 14:51:51;;;;;;;;;;;14.70;99.90;;;;;;5059870;28;19929;-63
2024/03/02 14:54:18;;;;;;;;;;;14.70;99.90;;;;;;5066575;28;19934;-63